Strona główna
METAR-TAF:

METAR-TAF

Lotnisko :

Port lotniczy Kopenhaga-Kastrup

Kopenhaga, Dania

Szerokość geograficzna: 55-37N, Długość geograficzna: 012-39E, wysokość: 5 m

Aktualna obserwacja pogody

Raport powstał 15 minut temu, godzina 18:20 UTC
Wiatr 8 kt od północno-północny wschód
Temperatura 19°C
Wilgotność 73%
Ciśnienie 1013 hPa
Widzialność 10 km lub więcej

METAR: EKCH 171820Z AUTO 02008KT 9999 NCD 19/14 Q1013 NOSIG

czas: 20:35 (18:35 UTC)

Prognoza

Raport powstał 1 godzina i 35 minut temu, godzina 17:00 UTC
Prognoza ważna od 17 godzina 18 UTC do 18 godzina 18 UTC
Wiatr 5 kt od północno-północny zachód
Widzialność 10 km lub więcej
Mało chmury na wysokości 3000 ft

TAF: EKCH 171700Z 1718/1818 33005KT 9999 FEW030

Obserwacja i prognoza pogody dla ponad 4000 lotnisk (raport METAR i TAF).

Dostępne stacje oznaczono żółtymi i czerwonymi punktami na mapie.

Najedź kursorem aby zobaczyć nazwę stacji.

Kliknij aby zobaczyć obserwacje i prognozy pogody.

Aby zmienić mapę: kliknij na zielony przycisk z czarnym krzyżykiem, aby powiększyć; na zielony przycisk z myślnikiem, aby pomniejszyć; na zielone strzałki, aby przejść do map sąsiednich.


METAR-TAF: